sensor_id;sensor_type;location;lat;lon;timestamp;pressure;altitude;pressure_sealevel;temperature;humidity
53940;BME280;39850;43.324;21.916;2023-03-14T00:04:15;993.0;;;5.9;46.0
53940;BME280;39850;43.324;21.916;2023-03-14T00:08:51;993.0;;;5.6;46.0
53940;BME280;39850;43.324;21.916;2023-03-14T00:13:27;993.0;;;5.6;46.0
53940;BME280;39850;43.324;21.916;2023-03-14T00:18:04;993.0;;;5.6;46.0
53940;BME280;39850;43.324;21.916;2023-03-14T00:22:42;993.0;;;5.6;46.0
53940;BME280;39850;43.324;21.916;2023-03-14T00:27:18;993.0;;;5.6;46.0
53940;BME280;39850;43.324;21.916;2023-03-14T00:31:54;993.0;;;5.3;46.0
53940;BME280;39850;43.324;21.916;2023-03-14T00:36:31;993.0;;;5.3;46.0
53940;BME280;39850;43.324;21.916;2023-03-14T01:22:45;992.0;;;6.4;46.0
53940;BME280;39850;43.324;21.916;2023-03-14T01:27:22;992.0;;;6.4;46.0
53940;BME280;39850;43.324;21.916;2023-03-14T01:31:59;992.0;;;6.4;46.0
53940;BME280;39850;43.324;21.916;2023-03-14T01:36:36;992.0;;;6.4;46.0
53940;BME280;39850;43.324;21.916;2023-03-14T01:41:23;992.0;;;6.4;46.0
53940;BME280;39850;43.324;21.916;2023-03-14T01:46:36;992.0;;;6.4;46.0
53940;BME280;39850;43.324;21.916;2023-03-14T01:51:32;992.0;;;6.4;46.0
53940;BME280;39850;43.324;21.916;2023-03-14T01:56:27;992.0;;;6.4;46.0
53940;BME280;39850;43.324;21.916;2023-03-14T02:40:07;992.0;;;5.3;46.0
53940;BME280;39850;43.324;21.916;2023-03-14T02:45:25;992.0;;;5.3;46.0
53940;BME280;39850;43.324;21.916;2023-03-14T02:50:26;992.0;;;5.3;46.0
53940;BME280;39850;43.324;21.916;2023-03-14T02:55:09;992.0;;;5.3;46.0
53940;BME280;39850;43.324;21.916;2023-03-14T02:59:45;992.0;;;5.3;46.0
53940;BME280;39850;43.324;21.916;2023-03-14T03:04:21;992.0;;;5.3;46.0
53940;BME280;39850;43.324;21.916;2023-03-14T03:08:58;992.0;;;5.4;46.0
53940;BME280;39850;43.324;21.916;2023-03-14T03:13:35;992.0;;;5.4;46.0
53940;BME280;39850;43.324;21.916;2023-03-14T03:18:13;992.0;;;5.4;46.0
53940;BME280;39850;43.324;21.916;2023-03-14T03:22:50;991.0;;;5.4;47.0
53940;BME280;39850;43.324;21.916;2023-03-14T03:27:26;991.0;;;5.4;47.0
53940;BME280;39850;43.324;21.916;2023-03-14T04:08:56;991.0;;;5.5;48.0
53940;BME280;39850;43.324;21.916;2023-03-14T04:13:33;991.0;;;5.5;48.0
53940;BME280;39850;43.324;21.916;2023-03-14T04:18:09;991.0;;;5.5;48.0
53940;BME280;39850;43.324;21.916;2023-03-14T04:22:46;991.0;;;5.4;47.0
53940;BME280;39850;43.324;21.916;2023-03-14T04:27:22;991.0;;;5.4;47.0
53940;BME280;39850;43.324;21.916;2023-03-14T04:31:59;991.0;;;5.4;47.0
53940;BME280;39850;43.324;21.916;2023-03-14T04:36:36;991.0;;;5.4;47.0
53940;BME280;39850;43.324;21.916;2023-03-14T04:41:13;991.0;;;5.3;46.0
53940;BME280;39850;43.324;21.916;2023-03-14T04:45:50;991.0;;;5.3;46.0
53940;BME280;39850;43.324;21.916;2023-03-14T05:22:46;991.0;;;4.4;47.0
53940;BME280;39850;43.324;21.916;2023-03-14T05:27:23;991.0;;;4.4;47.0
53940;BME280;39850;43.324;21.916;2023-03-14T05:32:00;991.0;;;4.9;48.0
53940;BME280;39850;43.324;21.916;2023-03-14T05:36:38;991.0;;;4.9;48.0
53940;BME280;39850;43.324;21.916;2023-03-14T05:41:14;991.0;;;5.4;47.0
53940;BME280;39850;43.324;21.916;2023-03-14T05:45:50;991.0;;;5.4;47.0
53940;BME280;39850;43.324;21.916;2023-03-14T05:50:27;991.0;;;5.4;48.0
53940;BME280;39850;43.324;21.916;2023-03-14T05:55:07;991.0;;;5.4;48.0
53940;BME280;39850;43.324;21.916;2023-03-14T05:59:43;991.0;;;5.5;47.0
53940;BME280;39850;43.324;21.916;2023-03-14T06:04:20;991.0;;;5.5;47.0
53940;BME280;39850;43.324;21.916;2023-03-14T06:08:56;991.0;;;5.5;47.0
53940;BME280;39850;43.324;21.916;2023-03-14T06:41:11;991.0;;;6.2;45.0
53940;BME280;39850;43.324;21.916;2023-03-14T06:45:47;991.0;;;6.2;45.0
53940;BME280;39850;43.324;21.916;2023-03-14T06:50:24;991.0;;;6.8;43.0
53940;BME280;39850;43.324;21.916;2023-03-14T06:55:01;991.0;;;6.8;43.0
53940;BME280;39850;43.324;21.916;2023-03-14T06:59:38;991.0;;;7.5;42.0
53940;BME280;39850;43.324;21.916;2023-03-14T07:04:15;991.0;;;7.5;42.0
53940;BME280;39850;43.324;21.916;2023-03-14T07:08:51;991.0;;;7.5;42.0
53940;BME280;39850;43.324;21.916;2023-03-14T07:13:28;991.0;;;8.2;40.0
53940;BME280;39850;43.324;21.916;2023-03-14T07:18:05;991.0;;;8.2;40.0
53940;BME280;39850;43.324;21.916;2023-03-14T07:22:42;991.0;;;8.9;38.0
53940;BME280;39850;43.324;21.916;2023-03-14T07:27:19;991.0;;;8.9;38.0
53940;BME280;39850;43.324;21.916;2023-03-14T08:22:38;990.0;;;10.6;35.0
53940;BME280;39850;43.324;21.916;2023-03-14T08:27:15;990.0;;;10.6;35.0
53940;BME280;39850;43.324;21.916;2023-03-14T08:31:52;990.0;;;10.6;35.0
53940;BME280;39850;43.324;21.916;2023-03-14T08:36:29;990.0;;;10.6;35.0
53940;BME280;39850;43.324;21.916;2023-03-14T08:41:09;990.0;;;10.6;35.0
53940;BME280;39850;43.324;21.916;2023-03-14T08:45:45;990.0;;;10.6;35.0
53940;BME280;39850;43.324;21.916;2023-03-14T09:31:51;988.0;;;13.6;29.0
53940;BME280;39850;43.324;21.916;2023-03-14T09:36:28;988.0;;;13.6;29.0
53940;BME280;39850;43.324;21.916;2023-03-14T09:41:28;988.0;;;13.8;29.0
53940;BME280;39850;43.324;21.916;2023-03-14T09:46:14;988.0;;;13.8;29.0
53940;BME280;39850;43.324;21.916;2023-03-14T09:51:05;988.0;;;13.8;29.0
53940;BME280;39850;43.324;21.916;2023-03-14T09:55:53;988.0;;;13.8;29.0
53940;BME280;39850;43.324;21.916;2023-03-14T10:00:35;988.0;;;14.1;29.0
53940;BME280;39850;43.324;21.916;2023-03-14T10:05:23;988.0;;;14.1;29.0
53940;BME280;39850;43.324;21.916;2023-03-14T10:53:17;986.0;;;16.2;25.0
53940;BME280;39850;43.324;21.916;2023-03-14T10:57:55;986.0;;;16.2;25.0
53940;BME280;39850;43.324;21.916;2023-03-14T11:03:13;986.0;;;16.4;25.0
53940;BME280;39850;43.324;21.916;2023-03-14T11:08:09;986.0;;;16.4;25.0
53940;BME280;39850;43.324;21.916;2023-03-14T11:13:24;986.0;;;16.4;25.0
53940;BME280;39850;43.324;21.916;2023-03-14T11:19:14;986.0;;;16.4;25.0
53940;BME280;39850;43.324;21.916;2023-03-14T11:24:53;986.0;;;16.5;26.0
53940;BME280;39850;43.324;21.916;2023-03-14T11:29:54;986.0;;;16.5;26.0
53940;BME280;39850;43.324;21.916;2023-03-14T12:05:38;985.0;;;17.1;22.0
53940;BME280;39850;43.324;21.916;2023-03-14T12:10:16;985.0;;;17.1;22.0
53940;BME280;39850;43.324;21.916;2023-03-14T12:15:03;985.0;;;17.1;21.0
53940;BME280;39850;43.324;21.916;2023-03-14T12:20:21;985.0;;;17.1;21.0
53940;BME280;39850;43.324;21.916;2023-03-14T12:25:23;985.0;;;17.1;20.0
53940;BME280;39850;43.324;21.916;2023-03-14T12:30:32;984.0;;;17.2;19.0
53940;BME280;39850;43.324;21.916;2023-03-14T12:35:41;984.0;;;17.2;19.0
53940;BME280;39850;43.324;21.916;2023-03-14T12:40:47;984.0;;;17.3;19.0
53940;BME280;39850;43.324;21.916;2023-03-14T12:45:37;984.0;;;17.3;19.0
53940;BME280;39850;43.324;21.916;2023-03-14T13:25:11;983.0;;;17.4;17.0
53940;BME280;39850;43.324;21.916;2023-03-14T13:29:51;983.0;;;17.4;17.0
53940;BME280;39850;43.324;21.916;2023-03-14T13:34:34;983.0;;;17.4;17.0
53940;BME280;39850;43.324;21.916;2023-03-14T13:39:22;983.0;;;17.4;17.0
53940;BME280;39850;43.324;21.916;2023-03-14T13:44:25;983.0;;;17.4;17.0
53940;BME280;39850;43.324;21.916;2023-03-14T13:49:22;983.0;;;17.4;17.0
53940;BME280;39850;43.324;21.916;2023-03-14T13:54:02;983.0;;;17.6;16.0
53940;BME280;39850;43.324;21.916;2023-03-14T13:58:42;983.0;;;17.6;16.0
53940;BME280;39850;43.324;21.916;2023-03-14T14:03:19;983.0;;;17.8;17.0
53940;BME280;39850;43.324;21.916;2023-03-14T14:07:57;983.0;;;17.8;17.0
53940;BME280;39850;43.324;21.916;2023-03-14T14:41:42;981.0;;;17.5;17.0
53940;BME280;39850;43.324;21.916;2023-03-14T14:46:21;981.0;;;17.5;17.0
53940;BME280;39850;43.324;21.916;2023-03-14T14:51:07;981.0;;;17.3;17.0
53940;BME280;39850;43.324;21.916;2023-03-14T14:55:44;981.0;;;17.3;17.0
53940;BME280;39850;43.324;21.916;2023-03-14T15:00:27;981.0;;;17.3;17.0
53940;BME280;39850;43.324;21.916;2023-03-14T15:05:16;981.0;;;17.1;17.0
53940;BME280;39850;43.324;21.916;2023-03-14T15:09:53;981.0;;;17.1;17.0
53940;BME280;39850;43.324;21.916;2023-03-14T15:14:30;981.0;;;17.1;17.0
53940;BME280;39850;43.324;21.916;2023-03-14T15:19:26;981.0;;;17.1;17.0
53940;BME280;39850;43.324;21.916;2023-03-14T15:24:09;981.0;;;17.1;18.0
53940;BME280;39850;43.324;21.916;2023-03-14T15:28:48;981.0;;;17.1;18.0
53940;BME280;39850;43.324;21.916;2023-03-14T16:14:59;981.0;;;16.7;18.0
53940;BME280;39850;43.324;21.916;2023-03-14T16:19:35;981.0;;;16.7;18.0
53940;BME280;39850;43.324;21.916;2023-03-14T16:24:11;981.0;;;16.4;18.0
53940;BME280;39850;43.324;21.916;2023-03-14T16:28:48;981.0;;;16.4;18.0
53940;BME280;39850;43.324;21.916;2023-03-14T16:33:25;981.0;;;16.4;18.0
53940;BME280;39850;43.324;21.916;2023-03-14T16:38:03;981.0;;;16.4;18.0
53940;BME280;39850;43.324;21.916;2023-03-14T16:42:40;981.0;;;16.2;18.0
53940;BME280;39850;43.324;21.916;2023-03-14T16:47:16;981.0;;;16.2;18.0
53940;BME280;39850;43.324;21.916;2023-03-14T17:24:13;981.0;;;16.4;23.0
53940;BME280;39850;43.324;21.916;2023-03-14T17:28:49;981.0;;;16.4;23.0
53940;BME280;39850;43.324;21.916;2023-03-14T17:33:26;981.0;;;16.2;22.0
53940;BME280;39850;43.324;21.916;2023-03-14T17:38:04;981.0;;;16.2;22.0
53940;BME280;39850;43.324;21.916;2023-03-14T17:42:40;981.0;;;16.0;23.0
53940;BME280;39850;43.324;21.916;2023-03-14T17:47:17;981.0;;;16.0;23.0
53940;BME280;39850;43.324;21.916;2023-03-14T17:51:53;981.0;;;15.6;23.0
53940;BME280;39850;43.324;21.916;2023-03-14T17:56:30;981.0;;;15.6;23.0
53940;BME280;39850;43.324;21.916;2023-03-14T18:01:14;981.0;;;15.6;23.0
53940;BME280;39850;43.324;21.916;2023-03-14T18:05:50;981.0;;;15.3;24.0
53940;BME280;39850;43.324;21.916;2023-03-14T18:10:26;981.0;;;15.3;24.0
53940;BME280;39850;43.324;21.916;2023-03-14T18:42:46;981.0;;;13.6;30.0
53940;BME280;39850;43.324;21.916;2023-03-14T18:47:22;981.0;;;13.6;30.0
53940;BME280;39850;43.324;21.916;2023-03-14T18:51:59;981.0;;;13.6;31.0
53940;BME280;39850;43.324;21.916;2023-03-14T18:56:39;981.0;;;13.6;31.0
53940;BME280;39850;43.324;21.916;2023-03-14T19:01:16;981.0;;;13.6;31.0
53940;BME280;39850;43.324;21.916;2023-03-14T19:05:55;981.0;;;13.5;31.0
53940;BME280;39850;43.324;21.916;2023-03-14T19:10:31;981.0;;;13.5;31.0
53940;BME280;39850;43.324;21.916;2023-03-14T19:15:10;981.0;;;13.5;32.0
53940;BME280;39850;43.324;21.916;2023-03-14T19:19:46;981.0;;;13.5;32.0
53940;BME280;39850;43.324;21.916;2023-03-14T19:24:23;981.0;;;13.5;32.0
53940;BME280;39850;43.324;21.916;2023-03-14T19:29:00;981.0;;;13.5;32.0
53940;BME280;39850;43.324;21.916;2023-03-14T20:05:53;981.0;;;12.7;35.0
53940;BME280;39850;43.324;21.916;2023-03-14T20:10:30;981.0;;;12.7;35.0
53940;BME280;39850;43.324;21.916;2023-03-14T20:15:12;981.0;;;12.4;36.0
53940;BME280;39850;43.324;21.916;2023-03-14T20:19:48;981.0;;;12.4;36.0
53940;BME280;39850;43.324;21.916;2023-03-14T20:24:25;981.0;;;12.7;36.0
53940;BME280;39850;43.324;21.916;2023-03-14T20:29:02;981.0;;;12.7;36.0
53940;BME280;39850;43.324;21.916;2023-03-14T20:33:38;981.0;;;12.4;36.0
53940;BME280;39850;43.324;21.916;2023-03-14T20:38:14;981.0;;;12.4;36.0
53940;BME280;39850;43.324;21.916;2023-03-14T20:42:51;981.0;;;12.7;36.0
53940;BME280;39850;43.324;21.916;2023-03-14T20:47:27;981.0;;;12.7;36.0
53940;BME280;39850;43.324;21.916;2023-03-14T20:52:04;981.0;;;12.7;36.0
53940;BME280;39850;43.324;21.916;2023-03-14T21:33:38;981.0;;;11.8;36.0
53940;BME280;39850;43.324;21.916;2023-03-14T21:38:15;981.0;;;11.8;36.0
53940;BME280;39850;43.324;21.916;2023-03-14T21:42:51;980.0;;;11.8;36.0
53940;BME280;39850;43.324;21.916;2023-03-14T21:47:27;980.0;;;11.8;36.0
53940;BME280;39850;43.324;21.916;2023-03-14T21:52:07;980.0;;;11.8;36.0
53940;BME280;39850;43.324;21.916;2023-03-14T21:56:46;980.0;;;11.8;36.0
53940;BME280;39850;43.324;21.916;2023-03-14T22:01:22;980.0;;;11.8;36.0
53940;BME280;39850;43.324;21.916;2023-03-14T22:06:01;980.0;;;11.8;36.0
53940;BME280;39850;43.324;21.916;2023-03-14T22:10:44;980.0;;;11.8;36.0
53940;BME280;39850;43.324;21.916;2023-03-14T23:06:06;980.0;;;10.9;36.0
53940;BME280;39850;43.324;21.916;2023-03-14T23:10:42;980.0;;;10.9;36.0
53940;BME280;39850;43.324;21.916;2023-03-14T23:15:19;980.0;;;10.9;36.0
53940;BME280;39850;43.324;21.916;2023-03-14T23:19:55;980.0;;;10.9;36.0
53940;BME280;39850;43.324;21.916;2023-03-14T23:24:32;980.0;;;10.9;36.0
53940;BME280;39850;43.324;21.916;2023-03-14T23:29:09;980.0;;;10.9;36.0
